Time;durP1;ratioP1;P1;durP2;ratioP2;P2;SDS_P1;SDS_P2;PMS_P1;PMS_P2;Temp;Humidity;BMP_temperature;BMP_pressure;BME280_temperature;BME280_humidity;BME280_pressure;Samples;Min_cycle;Max_cycle;Signal;HPM_P1;HPM_P2
2022/09/16 00:00:17;;;;;;;5.18;2.20;;;;;;;12.45;100.00;101005.38;5071476;28;20020;-66
2022/09/16 00:02:42;;;;;;;10.40;2.58;;;;;;;12.30;100.00;101013.50;5071665;28;20039;-63
2022/09/16 00:05:08;;;;;;;8.57;2.22;;;;;;;12.20;100.00;101011.06;5071457;28;20375;-64
2022/09/16 00:07:33;;;;;;;6.65;2.28;;;;;;;12.12;100.00;101007.69;5071491;28;20036;-63
2022/09/16 00:09:59;;;;;;;7.53;2.22;;;;;;;12.18;100.00;101009.34;5071182;28;20029;-64
2022/09/16 00:12:24;;;;;;;9.70;2.20;;;;;;;12.23;100.00;101001.41;5071502;28;20565;-64
2022/09/16 00:14:53;;;;;;;5.90;2.30;;;;;;;12.31;100.00;101010.00;5071349;28;20465;-64
2022/09/16 00:17:19;;;;;;;5.25;2.38;;;;;;;12.35;100.00;101003.81;5071584;28;20485;-64
2022/09/16 00:19:44;;;;;;;6.93;2.25;;;;;;;12.38;100.00;100996.75;5071410;28;20047;-64
2022/09/16 00:22:10;;;;;;;8.27;2.28;;;;;;;12.37;100.00;100991.53;5071380;28;20347;-65
2022/09/16 00:24:35;;;;;;;5.28;2.28;;;;;;;12.45;100.00;100989.63;5071439;28;20145;-66
2022/09/16 00:27:00;;;;;;;7.25;2.60;;;;;;;12.49;100.00;100999.16;5071266;28;20048;-65
2022/09/16 00:29:25;;;;;;;7.47;2.58;;;;;;;12.44;100.00;100998.41;5071365;28;20043;-66
2022/09/16 00:31:51;;;;;;;10.32;2.63;;;;;;;12.43;100.00;100992.28;5071342;28;20036;-65
2022/09/16 00:34:16;;;;;;;6.32;2.72;;;;;;;12.45;100.00;101000.13;5071381;28;20032;-65
2022/09/16 00:36:41;;;;;;;7.90;2.65;;;;;;;12.48;100.00;100993.03;5070828;28;20056;-65
2022/09/16 00:39:07;;;;;;;6.78;2.58;;;;;;;12.35;100.00;100988.94;5070860;28;20044;-64
2022/09/16 00:41:32;;;;;;;7.88;2.47;;;;;;;12.34;100.00;100997.69;5071211;28;20028;-62
2022/09/16 00:44:06;;;;;;;8.35;2.75;;;;;;;12.36;100.00;101000.28;5070836;28;20123;-64
2022/09/16 00:46:43;;;;;;;8.52;3.13;;;;;;;12.19;100.00;100985.72;5071202;28;20036;-63
2022/09/16 00:49:13;;;;;;;7.55;2.80;;;;;;;12.12;100.00;100984.09;5070956;28;20039;-64
2022/09/16 00:51:41;;;;;;;9.10;2.95;;;;;;;12.06;100.00;100989.47;5071078;28;20052;-63
2022/09/16 00:54:08;;;;;;;8.43;3.20;;;;;;;12.04;100.00;100978.13;5070949;28;20033;-62
2022/09/16 00:56:39;;;;;;;8.30;3.13;;;;;;;12.07;100.00;100985.06;5071092;28;20507;-64
2022/09/16 00:59:07;;;;;;;7.75;3.30;;;;;;;11.99;100.00;100985.19;5072023;28;20032;-64
2022/09/16 01:01:33;;;;;;;9.23;3.25;;;;;;;11.97;100.00;100973.84;5074932;28;20419;-64
2022/09/16 01:04:07;;;;;;;9.48;3.10;;;;;;;12.02;100.00;100989.53;5074754;28;20036;-63
2022/09/16 01:06:36;;;;;;;7.32;3.15;;;;;;;11.96;100.00;100982.63;5074599;28;20109;-62
2022/09/16 01:09:02;;;;;;;8.32;3.25;;;;;;;11.91;100.00;100979.22;5074500;28;20075;-63
2022/09/16 01:11:28;;;;;;;6.30;3.10;;;;;;;11.83;100.00;100973.22;5074547;28;20041;-64
2022/09/16 01:13:54;;;;;;;8.00;3.15;;;;;;;11.81;100.00;100977.63;5074356;28;20032;-63
2022/09/16 01:16:42;;;;;;;7.93;3.03;;;;;;;11.76;100.00;100977.72;5074401;28;20115;-63
2022/09/16 01:20:06;;;;;;;6.43;3.00;;;;;;;11.74;100.00;100975.97;5074360;28;20037;-64
2022/09/16 01:22:43;;;;;;;7.20;3.22;;;;;;;11.64;100.00;100982.25;5046953;28;20059;-64
2022/09/16 01:25:30;;;;;;;7.22;3.45;;;;;;;11.60;100.00;100988.44;5074260;28;20109;-62
2022/09/16 01:28:53;;;;;;;8.80;3.25;;;;;;;11.61;100.00;100984.91;5074017;28;20451;-63
2022/09/16 01:31:40;;;;;;;9.77;3.33;;;;;;;11.54;100.00;100984.16;4992194;28;20460;-63
2022/09/16 01:34:18;;;;;;;8.13;3.30;;;;;;;11.51;100.00;100992.06;5068456;28;20052;-63
2022/09/16 01:37:02;;;;;;;6.55;3.00;;;;;;;11.50;100.00;100985.94;5074149;28;20115;-61
2022/09/16 01:39:48;;;;;;;8.25;3.38;;;;;;;11.53;100.00;100982.41;5073673;28;20029;-65
2022/09/16 01:42:29;;;;;;;6.95;3.45;;;;;;;11.48;100.00;100987.72;5073993;28;20040;-63
2022/09/16 01:45:09;;;;;;;8.75;3.45;;;;;;;11.45;100.00;100981.66;5073744;28;20159;-64
2022/09/16 01:47:43;;;;;;;7.97;3.50;;;;;;;11.29;100.00;100960.06;5073677;28;20409;-63
2022/09/16 01:50:21;;;;;;;8.30;2.97;;;;;;;11.41;100.00;100985.22;5073689;28;20047;-62
2022/09/16 01:53:09;;;;;;;7.35;3.10;;;;;;;11.33;100.00;100971.34;5073572;28;20040;-62
2022/09/16 01:55:38;;;;;;;5.88;3.20;;;;;;;11.29;100.00;100970.53;5064001;28;20391;-63
2022/09/16 01:58:27;;;;;;;7.00;3.13;;;;;;;11.29;100.00;100974.91;5073683;28;20078;-62
2022/09/16 02:01:00;;;;;;;7.43;3.15;;;;;;;11.29;100.00;100985.38;5073578;28;20342;-63
2022/09/16 02:03:32;;;;;;;6.68;2.95;;;;;;;11.28;100.00;100983.66;5073520;28;20351;-63
2022/09/16 02:06:01;;;;;;;7.53;3.30;;;;;;;11.25;100.00;100988.97;5073589;28;20067;-64
2022/09/16 02:08:35;;;;;;;9.20;3.38;;;;;;;11.22;100.00;100995.09;5073438;28;20056;-65
2022/09/16 02:11:05;;;;;;;8.02;3.30;;;;;;;11.17;100.00;100999.53;5072604;28;20145;-63
2022/09/16 02:13:37;;;;;;;8.65;3.17;;;;;;;11.16;100.00;100993.41;5073296;28;20422;-64
2022/09/16 02:16:04;;;;;;;;;;;;;;;11.26;100.00;100996.75;5073520;28;20463;-63
2022/09/16 02:18:34;;;;;;;10.57;3.38;;;;;;;11.21;100.00;101003.84;5073347;28;19919;-63
2022/09/16 02:21:04;;;;;;;9.27;3.20;;;;;;;11.18;100.00;100997.78;5073079;28;20032;-62
2022/09/16 02:23:35;;;;;;;8.15;2.90;;;;;;;11.19;100.00;100995.13;5073154;28;20093;-63
2022/09/16 02:26:05;;;;;;;8.10;3.20;;;;;;;11.19;100.00;100989.03;5073023;28;20032;-65
2022/09/16 02:28:35;;;;;;;9.00;2.70;;;;;;;11.18;100.00;100984.69;5072912;28;20461;-63
2022/09/16 02:31:05;;;;;;;5.90;2.70;;;;;;;11.28;100.00;100994.13;5073035;28;20447;-65
2022/09/16 02:33:39;;;;;;;10.13;3.00;;;;;;;11.27;100.00;100980.16;5072870;28;20355;-64
2022/09/16 02:36:07;;;;;;;7.75;2.78;;;;;;;11.31;100.00;100988.84;5072622;28;20028;-62
2022/09/16 02:38:39;;;;;;;8.15;2.95;;;;;;;11.39;100.00;100987.88;5072801;28;20058;-64
2022/09/16 02:41:05;;;;;;;8.10;2.60;;;;;;;11.43;100.00;100991.28;5072730;28;20043;-65
2022/09/16 02:43:31;;;;;;;7.63;2.80;;;;;;;11.43;100.00;100981.66;5072417;28;20028;-63
2022/09/16 02:46:14;;;;;;;8.02;2.80;;;;;;;11.55;100.00;100983.25;5072554;28;20033;-63
2022/09/16 02:48:57;;;;;;;7.03;2.45;;;;;;;11.56;100.00;100987.63;5072624;28;20074;-64
2022/09/16 02:51:48;;;;;;;9.00;3.03;;;;;;;11.53;100.00;100990.28;5072423;28;20375;-64
2022/09/16 02:54:24;;;;;;;7.68;2.65;;;;;;;11.50;100.00;100988.56;5072399;28;20039;-62
2022/09/16 02:56:50;;;;;;;7.20;2.75;;;;;;;11.52;100.00;100984.16;5072469;28;20119;-64
2022/09/16 02:59:16;;;;;;;7.22;2.95;;;;;;;11.50;100.00;100991.19;5072306;28;20412;-62
2022/09/16 03:01:44;;;;;;;5.90;2.70;;;;;;;11.52;100.00;100986.78;5072423;28;20113;-63
2022/09/16 03:04:13;;;;;;;7.13;2.60;;;;;;;11.52;100.00;100986.78;5072410;28;20032;-63
2022/09/16 03:06:38;;;;;;;8.23;2.80;;;;;;;11.48;100.00;100969.38;5072103;28;20040;-63
2022/09/16 03:09:07;;;;;;;6.97;2.55;;;;;;;11.50;100.00;100985.94;5072197;28;20470;-65
2022/09/16 03:12:02;;;;;;;5.78;2.67;;;;;;;11.56;100.00;100982.38;5072127;28;20043;-63
2022/09/16 03:14:30;;;;;;;5.78;2.53;;;;;;;11.52;100.00;100968.44;5071667;28;20475;-62
2022/09/16 03:17:14;;;;;;;8.05;2.83;;;;;;;11.51;100.00;100977.19;5072159;28;20032;-63
2022/09/16 03:20:21;;;;;;;9.55;2.95;;;;;;;11.60;100.00;100970.09;5072067;28;20047;-62
2022/09/16 03:22:55;;;;;;;6.90;2.95;;;;;;;11.56;100.00;100969.28;5054301;28;20105;-64
2022/09/16 03:25:35;;;;;;;9.20;3.80;;;;;;;11.59;100.00;100976.22;5071992;28;20101;-63
2022/09/16 03:28:36;;;;;;;5.72;2.63;;;;;;;11.58;100.00;100977.13;5071935;28;20033;-65
2022/09/16 03:31:27;;;;;;;8.13;2.88;;;;;;;11.51;100.00;100960.59;5071711;28;20037;-63
2022/09/16 03:34:03;;;;;;;8.27;2.22;;;;;;;11.53;100.00;100974.56;5071781;28;20028;-63
2022/09/16 03:36:34;;;;;;;6.95;2.58;;;;;;;11.55;100.00;100977.16;5071892;28;20219;-63
2022/09/16 03:39:01;;;;;;;9.43;2.80;;;;;;;11.49;100.00;100981.59;5071881;28;20037;-63
2022/09/16 03:41:31;;;;;;;9.35;2.63;;;;;;;11.45;100.00;100972.03;5071710;28;20055;-63
2022/09/16 03:43:57;;;;;;;8.02;2.42;;;;;;;11.47;100.00;100975.50;5071688;28;20052;-63
2022/09/16 03:46:25;;;;;;;8.02;2.53;;;;;;;11.38;100.00;100970.41;5071726;28;20059;-63
2022/09/16 03:48:50;;;;;;;5.75;2.50;;;;;;;11.38;100.00;100965.16;5071520;28;20044;-66
2022/09/16 03:51:16;;;;;;;6.50;2.30;;;;;;;11.34;100.00;100966.09;5071577;28;20101;-62
2022/09/16 03:53:41;;;;;;;8.23;2.55;;;;;;;11.33;100.00;100972.22;5071047;28;20039;-61
2022/09/16 03:56:06;;;;;;;5.43;2.38;;;;;;;11.36;100.00;100969.56;5071649;28;20040;-63
2022/09/16 03:58:32;;;;;;;6.50;2.40;;;;;;;11.39;100.00;100976.53;5071596;28;20048;-63
2022/09/16 04:00:57;;;;;;;5.97;2.45;;;;;;;11.42;100.00;100974.72;5070938;28;20028;-63
2022/09/16 04:03:22;;;;;;;6.78;2.38;;;;;;;11.45;100.00;100979.03;5071640;28;20068;-63
2022/09/16 04:05:55;;;;;;;5.75;2.63;;;;;;;11.47;100.00;100982.50;5071137;28;20043;-63
2022/09/16 04:08:21;;;;;;;8.60;2.40;;;;;;;11.43;100.00;100971.19;5071481;28;20478;-64
2022/09/16 04:11:01;;;;;;;8.52;3.10;;;;;;;11.34;100.00;100968.72;5065640;28;20060;-64
2022/09/16 04:13:29;;;;;;;6.38;2.60;;;;;;;11.35;100.00;100974.81;5051479;28;20044;-63
2022/09/16 04:15:54;;;;;;;4.80;2.50;;;;;;;11.25;100.00;100961.00;5051239;28;20535;-64
2022/09/16 04:18:19;;;;;;;6.75;2.42;;;;;;;11.32;100.00;100978.34;5051291;28;20033;-63
2022/09/16 04:20:45;;;;;;;9.32;2.72;;;;;;;11.32;100.00;100969.63;5056437;28;20059;-62
2022/09/16 04:23:11;;;;;;;6.57;2.70;;;;;;;11.34;100.00;100973.97;5063797;28;20033;-60
2022/09/16 04:25:36;;;;;;;7.78;2.50;;;;;;;11.38;100.00;100980.91;5071652;28;20037;-63
2022/09/16 04:28:01;;;;;;;5.75;2.30;;;;;;;11.42;100.00;100981.72;5071329;28;20036;-63
2022/09/16 04:30:27;;;;;;;5.00;2.40;;;;;;;11.41;100.00;100980.84;5071135;28;20036;-64
2022/09/16 04:32:54;;;;;;;6.38;2.38;;;;;;;11.40;100.00;100984.38;5071167;28;20435;-63
2022/09/16 04:35:19;;;;;;;7.72;2.70;;;;;;;11.43;100.00;100979.06;5074162;28;20043;-63
2022/09/16 04:37:45;;;;;;;8.15;2.33;;;;;;;11.41;100.00;100991.34;5075182;28;20040;-64
2022/09/16 04:40:10;;;;;;;6.68;2.33;;;;;;;11.36;100.00;100995.78;5075212;28;20039;-63
2022/09/16 04:42:36;;;;;;;5.90;2.45;;;;;;;11.38;100.00;100998.38;5069143;28;20115;-63
2022/09/16 04:45:01;;;;;;;6.97;2.28;;;;;;;11.33;100.00;100971.34;5074883;28;20843;-63
2022/09/16 04:47:27;;;;;;;3.72;2.17;;;;;;;11.42;100.00;100985.22;5074927;28;20120;-63
2022/09/16 04:49:53;;;;;;;4.15;2.00;;;;;;;11.30;100.00;100989.75;5074747;28;20119;-63
2022/09/16 04:52:18;;;;;;;6.03;1.88;;;;;;;11.28;100.00;100966.19;5074842;28;20044;-64
2022/09/16 04:54:43;;;;;;;5.40;2.05;;;;;;;11.25;100.00;100962.75;5074881;28;20629;-62
2022/09/16 04:57:08;;;;;;;6.63;1.80;;;;;;;11.32;100.00;100965.25;5074912;28;20040;-61
2022/09/16 04:59:34;;;;;;;3.72;1.80;;;;;;;11.35;100.00;100961.72;5074699;28;20427;-61
2022/09/16 05:02:00;;;;;;;4.00;1.60;;;;;;;11.36;100.00;100963.47;5074700;28;20047;-61
2022/09/16 05:04:25;;;;;;;6.47;1.90;;;;;;;11.38;100.00;100965.16;5074594;28;20126;-61
2022/09/16 05:06:50;;;;;;;5.25;1.52;;;;;;;11.34;100.00;100960.84;5074600;28;20115;-62
2022/09/16 05:09:15;;;;;;;5.38;1.48;;;;;;;11.32;100.00;100973.13;5074604;28;20042;-62
2022/09/16 05:11:41;;;;;;;3.35;1.70;;;;;;;11.37;100.00;100966.06;5074328;28;20032;-61
2022/09/16 05:14:11;;;;;;;6.63;1.73;;;;;;;11.40;100.00;100979.13;5074285;28;20032;-62
2022/09/16 05:16:36;;;;;;;5.63;1.33;;;;;;;11.34;100.00;100973.97;5074360;28;20123;-62
2022/09/16 05:19:03;;;;;;;4.05;1.50;;;;;;;11.33;100.00;100977.47;5073838;28;20493;-61
2022/09/16 05:21:30;;;;;;;2.70;1.60;;;;;;;11.35;100.00;100986.19;5074130;28;20032;-61
2022/09/16 05:23:59;;;;;;;4.82;1.30;;;;;;;11.33;100.00;100989.69;5073916;28;20382;-61
2022/09/16 05:26:27;;;;;;;3.08;1.40;;;;;;;11.27;100.00;100988.03;5074332;28;20036;-63
2022/09/16 05:28:52;;;;;;;5.55;1.40;;;;;;;11.35;100.00;101004.50;5073727;28;20528;-62
2022/09/16 05:31:27;;;;;;;6.53;2.40;;;;;;;11.36;100.00;100995.78;5073928;28;20063;-62
2022/09/16 05:34:10;;;;;;;4.82;1.60;;;;;;;11.43;100.00;100994.78;5070994;28;20051;-62
2022/09/16 05:36:37;;;;;;;;;;;;;;;11.52;100.00;100992.03;5062171;28;20337;-63
2022/09/16 05:39:03;;;;;;;5.90;1.60;;;;;;;11.50;100.00;100996.44;5063404;28;20377;-63
2022/09/16 05:41:28;;;;;;;4.90;1.90;;;;;;;11.55;100.00;100987.63;5058800;28;20029;-63
2022/09/16 05:43:57;;;;;;;5.53;1.33;;;;;;;11.57;100.00;100991.09;5056090;28;20079;-61
2022/09/16 05:46:23;;;;;;;5.57;1.67;;;;;;;11.63;100.00;100996.25;5055351;28;20136;-63
2022/09/16 05:48:49;;;;;;;5.93;1.50;;;;;;;11.65;100.00;100989.22;5053977;28;20049;-64
2022/09/16 05:51:18;;;;;;;6.93;1.52;;;;;;;11.67;100.00;100992.69;5053477;28;20047;-64
2022/09/16 05:53:45;;;;;;;7.88;1.50;;;;;;;11.73;100.00;100992.59;5053536;28;20120;-63
2022/09/16 05:56:20;;;;;;;4.80;1.40;;;;;;;11.74;100.00;100981.22;5053447;28;20091;-63
2022/09/16 05:58:46;;;;;;;7.93;1.80;;;;;;;11.79;100.00;100987.28;5053594;28;20033;-64
2022/09/16 06:01:17;;;;;;;5.65;1.45;;;;;;;11.81;100.00;100990.75;5053469;28;20051;-63
2022/09/16 06:03:44;;;;;;;5.63;1.70;;;;;;;11.76;100.00;100974.25;5053579;28;20041;-63
2022/09/16 06:06:27;;;;;;;6.22;1.50;;;;;;;11.77;100.00;100978.59;5053463;28;20111;-64
2022/09/16 06:08:56;;;;;;;3.45;1.30;;;;;;;11.79;100.00;100988.13;5053299;28;20683;-64
2022/09/16 06:11:22;;;;;;;4.25;1.38;;;;;;;11.77;100.00;100994.31;5053475;28;20040;-64
2022/09/16 06:13:54;;;;;;;4.28;1.25;;;;;;;11.70;100.00;100998.75;5052955;28;20128;-64
2022/09/16 06:16:20;;;;;;;5.25;1.30;;;;;;;11.67;100.00;100990.94;5070156;28;20454;-64
2022/09/16 06:18:45;;;;;;;5.80;1.60;;;;;;;11.70;100.00;100995.25;5073010;28;20052;-64
2022/09/16 06:21:12;;;;;;;3.33;1.27;;;;;;;11.77;100.00;100986.47;5073046;28;20351;-64
2022/09/16 06:23:38;;;;;;;5.55;1.55;;;;;;;11.85;100.00;100992.44;5072949;28;20036;-63
2022/09/16 06:26:07;;;;;;;3.78;1.20;;;;;;;11.90;100.00;101000.22;5072950;28;20040;-64
2022/09/16 06:28:33;;;;;;;5.00;1.20;;;;;;;11.83;100.00;101004.69;5073089;28;20036;-64
2022/09/16 06:31:05;;;;;;;3.63;1.23;;;;;;;11.80;100.00;101015.22;5072940;28;20047;-64
2022/09/16 06:33:31;;;;;;;4.50;1.10;;;;;;;11.80;100.00;100997.75;5072579;28;20036;-63
2022/09/16 06:35:57;;;;;;;4.05;1.10;;;;;;;11.88;100.00;100996.75;5072626;28;20041;-64
2022/09/16 06:38:23;;;;;;;3.13;1.20;;;;;;;12.00;100.00;100997.41;5072864;28;20119;-64
2022/09/16 06:40:49;;;;;;;3.90;1.10;;;;;;;12.06;100.00;100999.94;5072829;28;20025;-64
2022/09/16 06:43:14;;;;;;;4.55;1.17;;;;;;;12.10;100.00;101009.50;5072827;28;20082;-64
2022/09/16 06:45:40;;;;;;;5.10;1.00;;;;;;;12.12;100.00;101010.31;5072694;28;20056;-64
2022/09/16 06:48:05;;;;;;;5.13;1.40;;;;;;;12.07;100.00;101001.69;5072599;28;20044;-64
2022/09/16 06:50:31;;;;;;;3.20;1.30;;;;;;;12.11;100.00;101021.72;5072394;28;20511;-64
2022/09/16 06:52:56;;;;;;;2.83;1.27;;;;;;;12.08;100.00;101013.03;5072518;28;20043;-64
2022/09/16 06:55:21;;;;;;;3.92;1.30;;;;;;;12.15;100.00;101018.13;5072255;28;20406;-64
2022/09/16 06:57:47;;;;;;;4.47;1.40;;;;;;;12.09;100.00;101020.88;5072437;28;20032;-64
2022/09/16 07:00:13;;;;;;;6.00;1.33;;;;;;;12.03;100.00;101020.97;5072129;28;20050;-64
2022/09/16 07:02:38;;;;;;;4.10;1.40;;;;;;;11.96;100.00;101018.47;5072330;28;20032;-64
2022/09/16 07:05:04;;;;;;;3.55;1.20;;;;;;;11.91;100.00;101010.69;5072013;28;20094;-65
2022/09/16 07:07:31;;;;;;;4.85;1.50;;;;;;;11.96;100.00;101018.47;5072296;28;20059;-64
2022/09/16 07:09:56;;;;;;;8.52;1.63;;;;;;;12.01;100.00;101017.50;5072123;28;20427;-63
2022/09/16 07:12:21;;;;;;;3.83;1.50;;;;;;;12.01;100.00;101012.25;5072167;28;20106;-65
2022/09/16 07:14:47;;;;;;;3.30;1.13;;;;;;;11.98;100.00;101009.69;5072107;28;20146;-64
2022/09/16 07:17:12;;;;;;;3.88;1.30;;;;;;;12.00;100.00;101005.28;5072053;28;20169;-64
2022/09/16 07:19:37;;;;;;;3.08;1.50;;;;;;;12.02;100.00;101006.13;5071865;28;20042;-64
2022/09/16 07:22:03;;;;;;;7.28;1.70;;;;;;;12.09;100.00;101010.41;5071869;28;20039;-64
2022/09/16 07:24:28;;;;;;;3.63;1.45;;;;;;;12.12;100.00;101012.94;5071889;28;20044;-64
2022/09/16 07:26:53;;;;;;;4.80;1.40;;;;;;;12.24;100.00;101022.38;5071852;28;20119;-64
2022/09/16 07:29:19;;;;;;;5.05;1.63;;;;;;;12.41;100.00;101025.56;5071945;28;20029;-64
2022/09/16 07:31:45;;;;;;;4.75;1.50;;;;;;;12.58;100.00;101017.38;5071689;28;20525;-64
2022/09/16 07:34:11;;;;;;;3.80;1.40;;;;;;;12.82;100.00;101032.66;5071808;28;20151;-64
2022/09/16 07:36:43;;;;;;;2.17;1.17;;;;;;;13.07;100.00;101032.16;5072160;28;20040;-64
2022/09/16 07:39:10;;;;;;;6.32;1.88;;;;;;;13.23;100.00;101036.25;5071847;28;20036;-64
2022/09/16 07:41:38;;;;;;;6.40;1.40;;;;;;;13.28;100.00;101030.88;5071822;28;20032;-64
2022/09/16 07:44:04;;;;;;;3.97;1.33;;;;;;;13.31;100.00;101031.69;5071457;28;20049;-63
2022/09/16 07:46:32;;;;;;;4.45;1.48;;;;;;;13.35;99.92;101032.47;5071279;28;20057;-63
2022/09/16 07:48:59;;;;;;;5.28;1.38;;;;;;;13.41;99.60;101037.59;5071540;28;20044;-64
2022/09/16 07:51:26;;;;;;;5.22;1.58;;;;;;;13.37;97.65;101034.16;5071632;28;20075;-63
2022/09/16 07:53:58;;;;;;;3.42;1.98;;;;;;;13.34;99.10;101030.75;5071624;28;20481;-65
2022/09/16 07:56:24;;;;;;;3.58;1.95;;;;;;;13.15;100.00;101025.91;5071488;28;20443;-64
2022/09/16 07:58:51;;;;;;;3.97;1.73;;;;;;;12.94;100.00;101031.56;5071436;28;20463;-63
2022/09/16 08:01:16;;;;;;;3.78;1.77;;;;;;;12.85;100.00;101042.22;5071165;28;20036;-63
2022/09/16 08:03:43;;;;;;;4.10;1.70;;;;;;;12.76;100.00;101051.16;5071454;28;20024;-64
2022/09/16 08:06:12;;;;;;;6.15;1.60;;;;;;;12.70;100.00;101043.41;5071452;28;20043;-64
2022/09/16 08:08:37;;;;;;;3.53;1.73;;;;;;;12.78;100.00;101049.38;5070746;28;20544;-64
2022/09/16 08:11:04;;;;;;;4.68;1.90;;;;;;;12.88;100.00;101060.56;5071513;28;20037;-65
2022/09/16 08:13:31;;;;;;;4.93;1.88;;;;;;;12.86;100.00;101059.72;5071262;28;20063;-64
2022/09/16 08:16:05;;;;;;;5.20;2.00;;;;;;;13.32;100.00;101053.59;5071123;28;20025;-65
2022/09/16 08:18:31;;;;;;;4.00;2.10;;;;;;;13.63;100.00;101046.75;5071357;28;20090;-63
2022/09/16 08:20:58;;;;;;;4.93;1.90;;;;;;;13.59;100.00;101043.31;5071201;28;20363;-64
2022/09/16 08:23:23;;;;;;;4.57;2.28;;;;;;;13.50;100.00;101043.53;5071340;28;20087;-64
2022/09/16 08:25:57;;;;;;;6.80;2.17;;;;;;;13.48;100.00;101050.59;5071356;28;20044;-63
2022/09/16 08:28:22;;;;;;;4.60;2.10;;;;;;;13.48;100.00;101041.84;5068121;28;20028;-64
2022/09/16 08:30:47;;;;;;;5.20;2.17;;;;;;;13.72;100.00;101043.91;5071069;28;20101;-65
2022/09/16 08:33:13;;;;;;;4.72;2.00;;;;;;;13.83;99.67;101052.44;5071017;28;20115;-64
2022/09/16 08:35:38;;;;;;;5.25;1.73;;;;;;;13.68;99.59;101060.63;5071047;28;20094;-64
2022/09/16 08:38:04;;;;;;;7.18;2.00;;;;;;;13.62;100.00;101057.31;5071217;28;20032;-65
2022/09/16 08:40:33;;;;;;;4.90;1.98;;;;;;;13.96;100.00;101063.50;5070985;28;20033;-63
2022/09/16 08:43:13;;;;;;;4.82;1.65;;;;;;;14.54;96.68;101055.06;5070527;28;20332;-65
2022/09/16 08:46:10;;;;;;;6.72;2.03;;;;;;;14.59;95.16;101047.88;5070504;28;20122;-64
2022/09/16 08:48:41;;;;;;;4.25;1.70;;;;;;;14.81;95.79;101045.53;5068306;28;20048;-65
2022/09/16 08:51:11;;;;;;;5.50;1.83;;;;;;;14.81;93.60;101049.94;5069618;28;20032;-65
2022/09/16 08:53:44;;;;;;;4.20;1.75;;;;;;;14.84;94.65;101052.50;5070417;28;20133;-65
2022/09/16 08:56:14;;;;;;;6.35;1.60;;;;;;;15.04;92.91;101052.81;5070981;28;20037;-65
2022/09/16 08:58:47;;;;;;;4.95;1.73;;;;;;;15.06;89.73;101050.13;5071148;28;20107;-63
2022/09/16 09:01:33;;;;;;;4.20;1.33;;;;;;;15.17;91.98;101053.31;5070759;28;20482;-63
2022/09/16 09:03:59;;;;;;;5.70;1.40;;;;;;;15.42;91.60;101062.22;5070379;28;20430;-64
2022/09/16 09:06:30;;;;;;;3.28;1.50;;;;;;;15.45;88.00;101053.34;5070881;28;20033;-64
2022/09/16 09:09:15;;;;;;;3.07;1.10;;;;;;;15.46;90.78;101055.09;5070810;28;20063;-63
2022/09/16 09:11:43;;;;;;;4.65;1.30;;;;;;;15.74;87.32;101060.44;5070633;28;20044;-64
2022/09/16 09:14:39;;;;;;;4.00;1.15;;;;;;;15.81;85.04;101044.34;5070546;28;20032;-63
2022/09/16 09:17:30;;;;;;;4.03;1.10;;;;;;;16.13;83.81;101045.94;5070368;28;20435;-65
2022/09/16 09:20:18;;;;;;;4.38;1.20;;;;;;;16.31;84.54;101047.97;5070259;28;20185;-64
2022/09/16 09:23:11;;;;;;;3.30;0.90;;;;;;;16.23;83.44;101042.09;5073752;28;20055;-64
2022/09/16 09:25:54;;;;;;;4.18;1.15;;;;;;;15.95;83.73;101044.75;5071769;28;20032;-64
2022/09/16 09:28:48;;;;;;;3.85;0.90;;;;;;;15.67;84.46;101059.75;5074154;28;20364;-64
2022/09/16 09:31:34;;;;;;;6.35;1.17;;;;;;;15.47;84.22;101055.03;5074066;28;20040;-64
2022/09/16 09:34:26;;;;;;;3.20;0.98;;;;;;;15.52;83.15;101053.13;5073858;28;20408;-63
2022/09/16 09:37:36;;;;;;;4.50;1.20;;;;;;;15.43;83.77;101061.31;5073370;28;20435;-64
2022/09/16 09:40:08;;;;;;;7.38;1.10;;;;;;;15.50;82.65;101057.59;5073814;28;20359;-64
2022/09/16 09:42:42;;;;;;;3.00;1.15;;;;;;;15.77;83.83;101044.47;5073848;28;20032;-63
2022/09/16 09:45:25;;;;;;;4.68;1.20;;;;;;;16.07;78.85;101046.16;5073620;28;20067;-64
2022/09/16 09:48:02;;;;;;;7.30;1.13;;;;;;;16.23;79.13;101044.72;5073752;28;20063;-64
2022/09/16 09:50:35;;;;;;;3.50;1.33;;;;;;;16.26;77.25;101042.00;5073762;28;20029;-64
2022/09/16 09:53:12;;;;;;;5.53;1.55;;;;;;;16.70;79.70;101036.97;5073807;28;20055;-64
2022/09/16 09:55:40;;;;;;;3.30;1.00;;;;;;;16.89;74.84;101035.41;5073072;28;20043;-64
2022/09/16 09:58:29;;;;;;;2.95;0.90;;;;;;;17.13;76.37;101035.41;5073970;28;20028;-64
2022/09/16 10:00:56;;;;;;;3.70;0.90;;;;;;;17.22;72.56;101040.34;5073914;28;20366;-64
2022/09/16 10:03:24;;;;;;;2.10;0.70;;;;;;;16.83;68.29;101055.88;5075772;28;20082;-64
2022/09/16 10:05:50;;;;;;;1.48;0.60;;;;;;;16.06;67.85;101080.53;5076483;28;20040;-64
2022/09/16 10:08:31;;;;;;;4.03;0.80;;;;;;;15.14;78.22;101085.91;5075150;28;20451;-64
2022/09/16 10:10:59;;;;;;;4.95;0.85;;;;;;;13.70;88.28;101095.66;5073893;28;20043;-64
2022/09/16 10:13:28;;;;;;;10.18;1.20;;;;;;;12.71;96.67;101105.53;5073345;28;20463;-63
2022/09/16 10:16:09;;;;;;;4.32;1.20;;;;;;;12.02;100.00;101118.03;5074087;28;20111;-63
2022/09/16 10:18:36;;;;;;;7.88;1.10;;;;;;;11.60;100.00;101106.41;5073491;28;20047;-61
2022/09/16 10:21:04;;;;;;;3.67;0.77;;;;;;;11.34;100.00;101106.72;5073588;28;20028;-62
2022/09/16 10:23:30;;;;;;;5.07;1.75;;;;;;;11.42;100.00;101094.41;5071688;28;20033;-62
2022/09/16 10:26:22;;;;;;;2.05;0.70;;;;;;;11.35;100.00;101082.25;5071941;28;20043;-62
2022/09/16 10:28:54;;;;;;;4.35;0.73;;;;;;;11.38;100.00;101071.72;5068200;28;20040;-62
2022/09/16 10:31:20;;;;;;;4.23;0.70;;;;;;;11.43;100.00;101068.16;5071129;28;20021;-62
2022/09/16 10:33:46;;;;;;;4.45;0.60;;;;;;;11.34;100.00;101044.69;5071247;28;20355;-62
2022/09/16 10:36:21;;;;;;;3.38;0.65;;;;;;;11.50;100.00;101082.91;5071652;28;20065;-63
2022/09/16 10:38:58;;;;;;;1.17;0.50;;;;;;;11.44;100.00;101082.97;5071486;28;20060;-63
2022/09/16 10:41:26;;;;;;;2.25;0.40;;;;;;;11.25;100.00;101054.44;5071489;28;20087;-62
2022/09/16 10:44:01;;;;;;;1.08;0.60;;;;;;;11.44;100.00;101077.75;5071557;28;20060;-65
2022/09/16 10:46:28;;;;;;;2.20;0.57;;;;;;;11.41;100.00;101072.56;5072235;28;20093;-65
2022/09/16 10:49:00;;;;;;;5.40;0.75;;;;;;;11.51;100.00;101086.41;5072288;28;20588;-66
2022/09/16 10:51:28;;;;;;;1.73;0.80;;;;;;;11.78;100.00;101091.28;5072538;28;20119;-65
2022/09/16 10:53:59;;;;;;;3.22;0.88;;;;;;;11.87;100.00;101085.06;5072329;28;20040;-63
2022/09/16 10:56:30;;;;;;;4.90;1.10;;;;;;;11.97;100.00;101077.91;5074423;28;20120;-65
2022/09/16 10:59:09;;;;;;;4.90;1.30;;;;;;;11.91;100.00;101072.75;5072728;28;20134;-64
2022/09/16 11:02:07;;;;;;;3.25;1.33;;;;;;;12.07;100.00;101076.88;5073027;28;20047;-57
2022/09/16 11:04:41;;;;;;;3.38;1.30;;;;;;;12.18;100.00;101080.19;5072279;28;20070;-65
2022/09/16 11:07:20;;;;;;;5.15;1.60;;;;;;;12.02;100.00;101050.72;5072317;28;20028;-64
2022/09/16 11:10:27;;;;;;;7.18;1.70;;;;;;;12.39;100.00;101079.84;5071840;28;20463;-65
2022/09/16 11:13:32;;;;;;;3.92;1.48;;;;;;;12.53;100.00;101072.59;5071808;28;20074;-66
2022/09/16 11:16:13;;;;;;;3.60;1.33;;;;;;;12.68;100.00;101073.19;5072117;28;20032;-62
2022/09/16 11:19:04;;;;;;;6.30;1.65;;;;;;;12.76;100.00;101074.81;5072157;28;20032;-64
2022/09/16 11:21:35;;;;;;;4.30;1.60;;;;;;;12.82;100.00;101074.66;5071915;28;20032;-66
2022/09/16 11:24:24;;;;;;;5.22;1.88;;;;;;;12.80;100.00;101079.13;5071681;28;20040;-63
2022/09/16 11:27:07;;;;;;;6.60;1.77;;;;;;;12.77;100.00;101079.16;5071569;28;20039;-65
2022/09/16 11:30:00;;;;;;;5.32;1.83;;;;;;;12.62;100.00;101032.19;5071870;28;20028;-62
2022/09/16 11:32:39;;;;;;;8.23;2.20;;;;;;;12.99;100.00;101070.88;5071798;28;20040;-65
2022/09/16 11:35:31;;;;;;;9.02;2.47;;;;;;;13.10;100.00;101066.28;5071544;28;20040;-65
2022/09/16 11:38:08;;;;;;;9.68;2.38;;;;;;;13.26;100.00;101075.59;5040196;28;20040;-66
2022/09/16 11:40:45;;;;;;;5.85;2.25;;;;;;;13.29;100.00;101072.03;5070567;28;20501;-64